Time;durP1;ratioP1;P1;durP2;ratioP2;P2;SDS_P1;SDS_P2;PMS_P1;PMS_P2;Temp;Humidity;BMP_temperature;BMP_pressure;BME280_temperature;BME280_humidity;BME280_pressure;Samples;Min_cycle;Max_cycle;Signal;HPM_P1;HPM_P2
2021/03/31 00:00:55;;;;;;;9.80;3.85;;;;;;;;;;5092300;28;20040;-76
2021/03/31 00:03:21;;;;;;;7.63;3.95;;;;;;;;;;5093382;28;20043;-76
2021/03/31 00:05:47;;;;;;;5.50;3.03;;;;;;;;;;5093618;28;20108;-76
2021/03/31 00:08:13;;;;;;;6.63;4.05;;;;;;;;;;5093257;28;20036;-76
2021/03/31 00:10:43;;;;;;;7.82;3.53;;;;;;;;;;5093169;28;20028;-77
2021/03/31 00:13:10;;;;;;;7.95;3.72;;;;;;;;;;5093071;28;20035;-77
2021/03/31 00:15:36;;;;;;;5.15;3.63;;;;;;;;;;5093174;28;20354;-75
2021/03/31 00:18:05;;;;;;;5.40;3.20;;;;;;;;;;5092805;28;20065;-75
2021/03/31 00:20:31;;;;;;;7.65;3.50;;;;;;;;;;5093380;28;20036;-76
2021/03/31 00:22:56;;;;;;;5.18;3.10;;;;;;;;;;5093208;28;20038;-75
2021/03/31 00:25:22;;;;;;;5.47;3.30;;;;;;;;;;5092807;28;20040;-75
2021/03/31 00:27:47;;;;;;;8.70;3.97;;;;;;;;;;5092618;28;20074;-76
2021/03/31 00:30:15;;;;;;;8.57;4.70;;;;;;;;;;5093269;28;20085;-75
2021/03/31 00:32:41;;;;;;;5.18;3.53;;;;;;;;;;5093042;28;20527;-75
2021/03/31 00:35:07;;;;;;;8.23;4.53;;;;;;;;;;5092020;28;20066;-75
2021/03/31 00:37:34;;;;;;;6.88;4.20;;;;;;;;;;5093091;28;20470;-75
2021/03/31 00:40:00;;;;;;;11.60;4.65;;;;;;;;;;5092781;28;20028;-75
2021/03/31 00:42:26;;;;;;;9.32;4.32;;;;;;;;;;5091029;28;20035;-76
2021/03/31 00:44:51;;;;;;;11.38;4.10;;;;;;;;;;5092255;28;20421;-75
2021/03/31 00:47:17;;;;;;;5.45;3.75;;;;;;;;;;5092046;28;20020;-75
2021/03/31 00:49:42;;;;;;;6.15;3.28;;;;;;;;;;5092423;28;20106;-75
2021/03/31 00:52:08;;;;;;;7.10;3.65;;;;;;;;;;5091996;28;20032;-75
2021/03/31 00:54:34;;;;;;;5.30;3.40;;;;;;;;;;5090952;28;20036;-75
2021/03/31 00:56:59;;;;;;;6.60;4.03;;;;;;;;;;5092090;28;20382;-75
2021/03/31 00:59:25;;;;;;;7.85;3.55;;;;;;;;;;5092093;28;20028;-75
2021/03/31 01:01:51;;;;;;;5.55;4.05;;;;;;;;;;5091940;28;20047;-76
2021/03/31 01:04:16;;;;;;;7.07;4.15;;;;;;;;;;5073949;28;20036;-75
2021/03/31 01:06:42;;;;;;;9.90;4.30;;;;;;;;;;5092573;28;20042;-75
2021/03/31 01:09:07;;;;;;;6.72;3.28;;;;;;;;;;5092994;28;20110;-75
2021/03/31 01:11:42;;;;;;;5.40;3.45;;;;;;;;;;5092407;28;20093;-76
2021/03/31 01:14:25;;;;;;;7.63;4.20;;;;;;;;;;5091527;28;20032;-75
2021/03/31 01:16:54;;;;;;;13.23;5.35;;;;;;;;;;5091491;28;20036;-75
2021/03/31 01:19:53;;;;;;;8.20;5.25;;;;;;;;;;5091661;28;20062;-75
2021/03/31 01:22:35;;;;;;;9.95;4.60;;;;;;;;;;5091332;28;20101;-75
2021/03/31 01:25:28;;;;;;;8.45;4.53;;;;;;;;;;5092401;28;20047;-75
2021/03/31 01:28:16;;;;;;;8.40;4.00;;;;;;;;;;5090298;28;20534;-75
2021/03/31 01:30:56;;;;;;;9.48;4.40;;;;;;;;;;5094519;28;20272;-75
2021/03/31 01:33:24;;;;;;;8.60;4.68;;;;;;;;;;5096256;28;20031;-75
2021/03/31 01:35:51;;;;;;;10.77;4.85;;;;;;;;;;5096263;28;20044;-75
2021/03/31 01:38:20;;;;;;;9.00;4.88;;;;;;;;;;5094873;28;20036;-75
2021/03/31 01:40:48;;;;;;;10.10;5.70;;;;;;;;;;5093609;28;20032;-76
2021/03/31 01:43:20;;;;;;;8.23;4.82;;;;;;;;;;5096093;28;20089;-76
2021/03/31 01:45:56;;;;;;;11.98;5.38;;;;;;;;;;5096121;28;20059;-75
2021/03/31 01:48:26;;;;;;;10.50;4.13;;;;;;;;;;5095868;28;20032;-76
2021/03/31 01:50:56;;;;;;;6.25;3.83;;;;;;;;;;5095812;28;20509;-75
2021/03/31 01:53:23;;;;;;;7.88;4.18;;;;;;;;;;5095714;28;20032;-76
2021/03/31 01:55:53;;;;;;;5.82;3.72;;;;;;;;;;5095600;28;20495;-76
2021/03/31 01:58:20;;;;;;;9.70;4.68;;;;;;;;;;5095726;28;20042;-75
2021/03/31 02:00:48;;;;;;;16.45;5.05;;;;;;;;;;5095248;28;20369;-75
2021/03/31 02:03:16;;;;;;;8.10;4.50;;;;;;;;;;5094309;28;20048;-76
2021/03/31 02:05:43;;;;;;;7.93;4.30;;;;;;;;;;5095594;28;20486;-75
2021/03/31 02:08:09;;;;;;;7.03;4.43;;;;;;;;;;5094524;28;20039;-76
2021/03/31 02:10:36;;;;;;;6.40;4.05;;;;;;;;;;5095213;28;20024;-76
2021/03/31 02:13:03;;;;;;;6.68;4.38;;;;;;;;;;5095546;28;20394;-75
2021/03/31 02:15:30;;;;;;;8.15;4.32;;;;;;;;;;5095758;28;20119;-75
2021/03/31 02:17:59;;;;;;;9.10;3.88;;;;;;;;;;5094019;28;20082;-75
2021/03/31 02:20:25;;;;;;;9.38;4.63;;;;;;;;;;5094028;28;20437;-75
2021/03/31 02:22:53;;;;;;;10.00;4.45;;;;;;;;;;5095361;28;20103;-75
2021/03/31 02:25:19;;;;;;;8.10;5.03;;;;;;;;;;5095111;28;20036;-75
2021/03/31 02:27:46;;;;;;;9.10;4.35;;;;;;;;;;5094887;28;20512;-75
2021/03/31 02:30:14;;;;;;;9.32;4.45;;;;;;;;;;5095192;28;20032;-75
2021/03/31 02:32:40;;;;;;;7.13;4.35;;;;;;;;;;5093771;28;20016;-75
2021/03/31 02:35:08;;;;;;;9.10;5.25;;;;;;;;;;5093906;28;20494;-75
2021/03/31 02:37:37;;;;;;;8.48;3.83;;;;;;;;;;5094906;28;20116;-75
2021/03/31 02:40:05;;;;;;;13.15;4.93;;;;;;;;;;5082186;28;20055;-75
2021/03/31 02:42:30;;;;;;;7.32;4.05;;;;;;;;;;5073242;28;20033;-75
2021/03/31 02:44:57;;;;;;;8.38;4.47;;;;;;;;;;5074481;28;20039;-75
2021/03/31 02:47:28;;;;;;;7.53;4.47;;;;;;;;;;5074363;28;20089;-75
2021/03/31 02:49:58;;;;;;;10.68;5.03;;;;;;;;;;5074629;28;20035;-75
2021/03/31 02:52:24;;;;;;;9.02;4.95;;;;;;;;;;5073359;28;20068;-75
2021/03/31 02:54:52;;;;;;;8.85;5.40;;;;;;;;;;5074500;28;20029;-75
2021/03/31 02:57:19;;;;;;;12.02;4.57;;;;;;;;;;5074105;28;20471;-75
2021/03/31 02:59:46;;;;;;;11.77;4.70;;;;;;;;;;5073151;28;20548;-75
2021/03/31 03:02:18;;;;;;;8.70;4.85;;;;;;;;;;5074290;28;20352;-75
2021/03/31 03:04:51;;;;;;;8.60;4.60;;;;;;;;;;5073160;28;20032;-75
2021/03/31 03:07:17;;;;;;;11.80;4.30;;;;;;;;;;5074032;28;20033;-75
2021/03/31 03:09:44;;;;;;;20.52;5.97;;;;;;;;;;5083081;28;20039;-73
2021/03/31 03:12:14;;;;;;;15.50;4.88;;;;;;;;;;5093909;28;20447;-76
2021/03/31 03:14:44;;;;;;;9.13;4.82;;;;;;;;;;5094664;28;20035;-75
2021/03/31 03:17:10;;;;;;;12.00;5.18;;;;;;;;;;5092919;28;20093;-75
2021/03/31 03:19:35;;;;;;;9.02;5.10;;;;;;;;;;5092997;28;20440;-76
2021/03/31 03:22:02;;;;;;;11.30;4.93;;;;;;;;;;5094332;28;20032;-75
2021/03/31 03:24:29;;;;;;;9.43;4.35;;;;;;;;;;5092770;28;20032;-75
2021/03/31 03:26:55;;;;;;;10.45;5.07;;;;;;;;;;5093226;28;20032;-75
2021/03/31 03:29:22;;;;;;;10.43;4.50;;;;;;;;;;5094179;28;20406;-75
2021/03/31 03:31:48;;;;;;;8.35;4.70;;;;;;;;;;5094054;28;20389;-75
2021/03/31 03:34:14;;;;;;;9.57;5.13;;;;;;;;;;5094220;28;20176;-75
2021/03/31 03:36:41;;;;;;;8.18;5.00;;;;;;;;;;5093950;28;20032;-76
2021/03/31 03:39:07;;;;;;;9.50;4.57;;;;;;;;;;5093571;28;20454;-76
2021/03/31 03:41:32;;;;;;;8.77;4.93;;;;;;;;;;5093378;28;20032;-76
2021/03/31 03:43:58;;;;;;;11.63;5.35;;;;;;;;;;5094049;28;20024;-76
2021/03/31 03:46:29;;;;;;;11.30;5.13;;;;;;;;;;5093826;28;20040;-76
2021/03/31 03:48:57;;;;;;;9.00;5.50;;;;;;;;;;5094084;28;20078;-76
2021/03/31 03:51:23;;;;;;;9.45;5.40;;;;;;;;;;5093631;28;20118;-76
2021/03/31 03:53:50;;;;;;;11.95;5.20;;;;;;;;;;5093106;28;20028;-76
2021/03/31 03:56:15;;;;;;;8.77;5.43;;;;;;;;;;5093223;28;20032;-76
2021/03/31 03:58:41;;;;;;;10.90;5.35;;;;;;;;;;5093650;28;20043;-76
2021/03/31 04:01:08;;;;;;;8.57;4.97;;;;;;;;;;5093694;28;20112;-77
2021/03/31 04:03:34;;;;;;;18.17;4.55;;;;;;;;;;5093380;28;20047;-76
2021/03/31 04:05:59;;;;;;;8.80;4.72;;;;;;;;;;5092613;28;20047;-77
2021/03/31 04:08:25;;;;;;;10.57;5.30;;;;;;;;;;5093266;28;20102;-76
2021/03/31 04:10:53;;;;;;;10.00;5.07;;;;;;;;;;5092172;28;20047;-76
2021/03/31 04:13:21;;;;;;;9.68;5.07;;;;;;;;;;5093430;28;20482;-76
2021/03/31 04:15:49;;;;;;;10.60;5.43;;;;;;;;;;5093277;28;20122;-76
2021/03/31 04:18:16;;;;;;;13.43;5.18;;;;;;;;;;5093200;28;20042;-76
2021/03/31 04:20:42;;;;;;;10.95;4.97;;;;;;;;;;5093371;28;20040;-77
2021/03/31 04:23:07;;;;;;;8.45;5.25;;;;;;;;;;5093036;28;20032;-76
2021/03/31 04:25:33;;;;;;;12.27;5.32;;;;;;;;;;5093019;28;20039;-77
2021/03/31 04:28:03;;;;;;;10.43;5.20;;;;;;;;;;5093076;28;20078;-76
2021/03/31 04:30:29;;;;;;;11.50;5.82;;;;;;;;;;5092180;28;20035;-76
2021/03/31 04:32:56;;;;;;;9.68;5.03;;;;;;;;;;5093322;28;20043;-76
2021/03/31 04:35:22;;;;;;;8.65;4.88;;;;;;;;;;5075055;28;20036;-76
2021/03/31 04:37:49;;;;;;;14.98;5.03;;;;;;;;;;5092882;28;20040;-76
2021/03/31 04:40:17;;;;;;;9.82;5.55;;;;;;;;;;5093141;28;20543;-77
2021/03/31 04:42:43;;;;;;;9.90;5.00;;;;;;;;;;5093098;28;20036;-77
2021/03/31 04:45:11;;;;;;;10.55;5.13;;;;;;;;;;5093220;28;20035;-77
2021/03/31 04:47:37;;;;;;;10.63;5.93;;;;;;;;;;5093096;28;20027;-76
2021/03/31 04:50:08;;;;;;;13.70;6.13;;;;;;;;;;5093012;28;20547;-76
2021/03/31 04:52:33;;;;;;;11.90;6.07;;;;;;;;;;5091773;28;20059;-76
2021/03/31 04:54:59;;;;;;;13.95;7.57;;;;;;;;;;5093130;28;20090;-76
2021/03/31 04:57:24;;;;;;;12.70;6.40;;;;;;;;;;5091286;28;20040;-77
2021/03/31 04:59:50;;;;;;;10.95;5.25;;;;;;;;;;5092132;28;20028;-76
2021/03/31 05:02:15;;;;;;;9.35;5.90;;;;;;;;;;5090670;28;20039;-76
2021/03/31 05:04:41;;;;;;;9.57;6.00;;;;;;;;;;5092631;28;20439;-76
2021/03/31 05:07:06;;;;;;;16.45;6.85;;;;;;;;;;5096612;28;20032;-76
2021/03/31 05:09:32;;;;;;;12.52;6.50;;;;;;;;;;5096740;28;20050;-76
2021/03/31 05:11:58;;;;;;;7.55;4.40;;;;;;;;;;5095222;28;20393;-76
2021/03/31 05:14:23;;;;;;;13.60;5.40;;;;;;;;;;5078407;28;20078;-76
2021/03/31 05:16:49;;;;;;;11.63;5.18;;;;;;;;;;5096674;28;20067;-76
2021/03/31 05:19:14;;;;;;;11.50;5.35;;;;;;;;;;5097028;28;20043;-76
2021/03/31 05:21:40;;;;;;;9.75;4.55;;;;;;;;;;5097762;28;20036;-76
2021/03/31 05:24:06;;;;;;;9.63;5.13;;;;;;;;;;5096833;28;20047;-76
2021/03/31 05:26:31;;;;;;;17.00;5.90;;;;;;;;;;5096216;28;20028;-76
2021/03/31 05:28:57;;;;;;;12.50;6.32;;;;;;;;;;5096477;28;20417;-75
2021/03/31 05:31:23;;;;;;;9.65;5.75;;;;;;;;;;5095275;28;20137;-76
2021/03/31 05:33:49;;;;;;;9.95;5.53;;;;;;;;;;5096407;28;20027;-77
2021/03/31 05:36:14;;;;;;;10.15;5.93;;;;;;;;;;5096324;28;20040;-76
2021/03/31 05:38:40;;;;;;;7.60;4.80;;;;;;;;;;5096436;28;20032;-77
2021/03/31 05:41:05;;;;;;;9.57;4.70;;;;;;;;;;5095844;28;20036;-76
2021/03/31 05:43:31;;;;;;;8.63;4.57;;;;;;;;;;5095606;28;20085;-77
2021/03/31 05:45:58;;;;;;;12.25;5.75;;;;;;;;;;5096185;28;20071;-75
2021/03/31 05:48:23;;;;;;;12.15;6.10;;;;;;;;;;5095960;28;20028;-77
2021/03/31 05:50:49;;;;;;;13.80;5.97;;;;;;;;;;5095921;28;20155;-76
2021/03/31 05:53:15;;;;;;;17.85;7.15;;;;;;;;;;5096027;28;20035;-75
2021/03/31 05:55:40;;;;;;;13.68;6.60;;;;;;;;;;5096667;28;20028;-75
2021/03/31 05:58:06;;;;;;;12.63;6.03;;;;;;;;;;5095480;28;20043;-76
2021/03/31 06:00:32;;;;;;;12.68;6.53;;;;;;;;;;5095203;28;20163;-76
2021/03/31 06:03:05;;;;;;;14.80;6.53;;;;;;;;;;5094831;28;20038;-75
2021/03/31 06:05:34;;;;;;;9.00;5.50;;;;;;;;;;5097507;28;20043;-76
2021/03/31 06:08:00;;;;;;;11.35;6.20;;;;;;;;;;5096702;28;20082;-76
2021/03/31 06:10:28;;;;;;;14.38;6.68;;;;;;;;;;5077762;28;20036;-76
2021/03/31 06:12:56;;;;;;;12.57;6.30;;;;;;;;;;5095763;28;20020;-76
2021/03/31 06:15:33;;;;;;;12.75;7.50;;;;;;;;;;5096140;28;20039;-76
2021/03/31 06:18:08;;;;;;;18.02;7.35;;;;;;;;;;5094706;28;20411;-76
2021/03/31 06:20:44;;;;;;;14.07;7.07;;;;;;;;;;5096136;28;20039;-76
2021/03/31 06:23:34;;;;;;;12.85;6.22;;;;;;;;;;5095785;28;20036;-76
2021/03/31 06:26:05;;;;;;;18.33;8.13;;;;;;;;;;5094524;28;20424;-76
2021/03/31 06:28:35;;;;;;;12.30;6.35;;;;;;;;;;5095962;28;20044;-76
2021/03/31 06:31:10;;;;;;;15.45;8.27;;;;;;;;;;5095168;28;20047;-75
2021/03/31 06:33:40;;;;;;;15.10;8.45;;;;;;;;;;5095237;28;20081;-75
2021/03/31 06:36:08;;;;;;;14.13;8.55;;;;;;;;;;5095327;28;20032;-75
2021/03/31 06:38:36;;;;;;;14.90;8.18;;;;;;;;;;5094191;28;20122;-75
2021/03/31 06:41:33;;;;;;;17.10;8.77;;;;;;;;;;5094994;28;20028;-75
2021/03/31 06:44:06;;;;;;;;;;;;;;;;;;5091433;28;20079;-75
2021/03/31 06:47:17;;;;;;;16.27;7.70;;;;;;;;;;5093804;28;19937;-76
2021/03/31 06:49:20;;;;;;;16.27;7.88;;;;;;;;;;5091750;28;20048;-75
2021/03/31 06:51:46;;;;;;;19.33;9.32;;;;;;;;;;5094740;28;20039;-76
2021/03/31 06:54:20;;;;;;;20.00;10.80;;;;;;;;;;5094722;28;20039;-77
2021/03/31 06:56:53;;;;;;;22.60;9.23;;;;;;;;;;5094638;28;20035;-75
2021/03/31 06:59:29;;;;;;;14.48;8.05;;;;;;;;;;5095147;28;20085;-76
2021/03/31 07:01:59;;;;;;;13.70;7.85;;;;;;;;;;5094322;28;20046;-77
2021/03/31 07:04:29;;;;;;;16.38;8.00;;;;;;;;;;5093072;28;20032;-76
2021/03/31 07:07:10;;;;;;;13.25;8.13;;;;;;;;;;5094104;28;20558;-76
2021/03/31 07:09:37;;;;;;;21.15;8.30;;;;;;;;;;5094430;28;20500;-76
2021/03/31 07:12:16;;;;;;;12.57;7.82;;;;;;;;;;5094231;28;20127;-76
2021/03/31 07:14:42;;;;;;;14.70;7.40;;;;;;;;;;5094180;28;20122;-75
2021/03/31 07:17:07;;;;;;;15.05;7.82;;;;;;;;;;5093800;28;20081;-76
2021/03/31 07:19:32;;;;;;;19.60;8.45;;;;;;;;;;5094496;28;20031;-77
2021/03/31 07:21:58;;;;;;;28.48;8.23;;;;;;;;;;5093126;28;20040;-77
2021/03/31 07:24:24;;;;;;;22.98;8.15;;;;;;;;;;5093949;28;20035;-76
2021/03/31 07:26:49;;;;;;;19.52;8.00;;;;;;;;;;5093221;28;20032;-76
2021/03/31 07:29:17;;;;;;;17.35;8.73;;;;;;;;;;5092109;28;20055;-76
2021/03/31 07:31:44;;;;;;;12.77;7.90;;;;;;;;;;5093902;28;20043;-76
2021/03/31 07:34:16;;;;;;;16.98;7.55;;;;;;;;;;5093852;28;20482;-76
2021/03/31 07:36:43;;;;;;;14.90;8.55;;;;;;;;;;5093825;28;20079;-76
2021/03/31 07:39:09;;;;;;;14.18;7.70;;;;;;;;;;5093941;28;20030;-76
2021/03/31 07:41:37;;;;;;;17.85;7.90;;;;;;;;;;5094067;28;20032;-76
2021/03/31 07:44:05;;;;;;;12.15;7.32;;;;;;;;;;5093849;28;20101;-76
2021/03/31 07:46:36;;;;;;;12.43;7.50;;;;;;;;;;5093795;28;20185;-76
2021/03/31 07:49:03;;;;;;;17.55;6.60;;;;;;;;;;5093346;28;20383;-76
2021/03/31 07:51:30;;;;;;;12.20;6.97;;;;;;;;;;5092640;28;20036;-76
2021/03/31 07:53:58;;;;;;;15.68;7.40;;;;;;;;;;5093403;28;20035;-76
2021/03/31 07:56:29;;;;;;;12.43;7.18;;;;;;;;;;5093089;28;20454;-76
2021/03/31 07:59:04;;;;;;;17.42;7.47;;;;;;;;;;5093658;28;20028;-76
2021/03/31 08:01:34;;;;;;;13.90;7.70;;;;;;;;;;5093566;28;20485;-76
2021/03/31 08:04:04;;;;;;;13.85;6.68;;;;;;;;;;5093495;28;20043;-76
2021/03/31 08:06:30;;;;;;;19.00;7.50;;;;;;;;;;5093369;28;20047;-76
2021/03/31 08:08:58;;;;;;;15.65;7.05;;;;;;;;;;5092819;28;20089;-76
2021/03/31 08:11:38;;;;;;;12.85;6.90;;;;;;;;;;5093168;28;20046;-76
2021/03/31 08:14:06;;;;;;;13.88;7.95;;;;;;;;;;5093445;28;20073;-76
2021/03/31 08:16:37;;;;;;;11.82;7.32;;;;;;;;;;5093033;28;20096;-77
2021/03/31 08:19:09;;;;;;;13.85;7.47;;;;;;;;;;5093478;28;20047;-76
2021/03/31 08:21:34;;;;;;;12.48;7.47;;;;;;;;;;5092949;28;20036;-76
2021/03/31 08:24:03;;;;;;;12.48;7.13;;;;;;;;;;5093173;28;20165;-76
2021/03/31 08:26:45;;;;;;;16.05;7.70;;;;;;;;;;5092944;28;20115;-76
2021/03/31 08:29:30;;;;;;;15.25;7.65;;;;;;;;;;5092845;28;20044;-76
2021/03/31 08:32:01;;;;;;;11.83;7.60;;;;;;;;;;5092913;28;20032;-76
2021/03/31 08:34:29;;;;;;;11.48;6.93;;;;;;;;;;5093646;28;20285;-77
2021/03/31 08:36:55;;;;;;;11.10;7.30;;;;;;;;;;5091963;28;20035;-77
2021/03/31 08:39:22;;;;;;;14.15;7.03;;;;;;;;;;5092062;28;20462;-76
2021/03/31 08:41:55;;;;;;;11.93;7.38;;;;;;;;;;5097127;28;20427;-76
2021/03/31 08:44:27;;;;;;;54.22;11.93;;;;;;;;;;5095983;28;20032;-76
2021/03/31 08:46:54;;;;;;;31.17;9.10;;;;;;;;;;5095982;28;20036;-76
2021/03/31 08:49:25;;;;;;;43.47;10.05;;;;;;;;;;5097064;28;20039;-77
2021/03/31 08:51:53;;;;;;;15.40;7.97;;;;;;;;;;5096119;28;20039;-76
2021/03/31 08:54:51;;;;;;;10.60;6.75;;;;;;;;;;5095834;28;20443;-76
2021/03/31 08:57:24;;;;;;;11.95;7.20;;;;;;;;;;5096220;28;20434;-75
2021/03/31 08:59:52;;;;;;;15.85;7.13;;;;;;;;;;5097349;28;20470;-77
2021/03/31 09:02:20;;;;;;;17.83;8.00;;;;;;;;;;5096886;28;20040;-77
2021/03/31 09:04:46;;;;;;;14.23;7.22;;;;;;;;;;5097130;28;20420;-76
2021/03/31 09:07:13;;;;;;;14.90;7.03;;;;;;;;;;5096510;28;20024;-76
2021/03/31 09:09:40;;;;;;;17.67;8.32;;;;;;;;;;5095379;28;20039;-76
2021/03/31 09:12:14;;;;;;;14.43;8.27;;;;;;;;;;5097105;28;20031;-76
2021/03/31 09:14:42;;;;;;;16.90;8.35;;;;;;;;;;5079821;28;20052;-77
2021/03/31 09:17:11;;;;;;;22.13;8.63;;;;;;;;;;5097319;28;20036;-77
2021/03/31 09:19:39;;;;;;;16.15;7.55;;;;;;;;;;5097590;28;20454;-77
2021/03/31 09:22:09;;;;;;;19.30;8.18;;;;;;;;;;5096885;28;20119;-78
2021/03/31 09:24:47;;;;;;;13.63;7.90;;;;;;;;;;5095780;28;20039;-77
2021/03/31 09:27:18;;;;;;;15.50;8.27;;;;;;;;;;5095026;28;20040;-78
2021/03/31 09:29:45;;;;;;;12.15;7.78;;;;;;;;;;5097618;28;20477;-77
2021/03/31 09:32:20;;;;;;;14.07;8.48;;;;;;;;;;5096691;28;20028;-77
2021/03/31 09:34:46;;;;;;;12.45;8.07;;;;;;;;;;5096873;28;20078;-77
2021/03/31 09:37:13;;;;;;;18.38;7.60;;;;;;;;;;5096786;28;20092;-77
2021/03/31 09:39:59;;;;;;;12.35;7.13;;;;;;;;;;5096400;28;20502;-77
2021/03/31 09:42:30;;;;;;;14.40;6.85;;;;;;;;;;5094321;28;20447;-76
2021/03/31 09:44:56;;;;;;;17.25;8.20;;;;;;;;;;5094736;28;20461;-76
2021/03/31 09:47:23;;;;;;;14.45;6.65;;;;;;;;;;5096114;28;20052;-77
2021/03/31 09:49:54;;;;;;;17.15;8.05;;;;;;;;;;5097201;28;20065;-79
2021/03/31 09:52:29;;;;;;;16.55;8.30;;;;;;;;;;5096716;28;20044;-75
2021/03/31 09:54:55;;;;;;;10.82;6.15;;;;;;;;;;5096342;28;20123;-76
2021/03/31 09:57:28;;;;;;;19.00;8.00;;;;;;;;;;5096071;28;20078;-76
2021/03/31 09:59:54;;;;;;;14.82;7.85;;;;;;;;;;5095869;28;20056;-77
2021/03/31 10:02:21;;;;;;;15.07;7.55;;;;;;;;;;5095857;28;20036;-77
2021/03/31 10:04:47;;;;;;;13.05;7.05;;;;;;;;;;5094457;28;20478;-77
2021/03/31 10:07:16;;;;;;;13.45;7.15;;;;;;;;;;5097206;28;20039;-75
2021/03/31 10:09:49;;;;;;;14.50;7.03;;;;;;;;;;5086722;28;20102;-77
2021/03/31 10:12:32;;;;;;;11.23;7.38;;;;;;;;;;5075517;28;20046;-76
2021/03/31 10:15:00;;;;;;;17.67;8.95;;;;;;;;;;5074254;28;20028;-74
2021/03/31 10:17:28;;;;;;;13.40;9.05;;;;;;;;;;5074978;28;20033;-74
2021/03/31 10:19:54;;;;;;;21.23;8.63;;;;;;;;;;5075146;28;20029;-74
2021/03/31 10:22:20;;;;;;;17.88;9.10;;;;;;;;;;5075076;28;20094;-76
2021/03/31 10:24:47;;;;;;;13.73;7.25;;;;;;;;;;5078542;28;20090;-76
2021/03/31 10:27:15;;;;;;;12.45;8.00;;;;;;;;;;5078649;28;20032;-79
2021/03/31 10:29:52;;;;;;;13.60;8.07;;;;;;;;;;5076927;28;20079;-76
2021/03/31 10:32:22;;;;;;;17.52;8.27;;;;;;;;;;5074209;28;20029;-76
2021/03/31 10:34:51;;;;;;;12.90;8.02;;;;;;;;;;5074916;28;20115;-75
2021/03/31 10:37:35;;;;;;;11.73;7.20;;;;;;;;;;5074504;28;20615;-76
2021/03/31 10:51:10;;;;;;;20.58;9.73;;;;;;;;;;5094953;28;20396;-74
2021/03/31 10:53:50;;;;;;;16.20;8.35;;;;;;;;;;5093393;28;20031;-75
2021/03/31 10:56:16;;;;;;;10.23;7.05;;;;;;;;;;5093616;28;20040;-75
2021/03/31 10:58:41;;;;;;;27.77;8.93;;;;;;;;;;5094575;28;20032;-76
2021/03/31 11:01:08;;;;;;;17.98;8.48;;;;;;;;;;5094564;28;20028;-75
2021/03/31 11:03:34;;;;;;;25.92;7.72;;;;;;;;;;5093606;28;20035;-75
2021/03/31 11:06:00;;;;;;;13.38;6.68;;;;;;;;;;5094498;28;20028;-75
2021/03/31 11:08:25;;;;;;;14.85;7.13;;;;;;;;;;5094145;28;20036;-76
2021/03/31 11:10:51;;;;;;;13.98;6.82;;;;;;;;;;5094562;28;20044;-74
2021/03/31 11:13:17;;;;;;;10.63;5.97;;;;;;;;;;5092646;28;20061;-75
2021/03/31 11:15:43;;;;;;;15.02;7.00;;;;;;;;;;5094285;28;20036;-74
2021/03/31 11:18:20;;;;;;;12.10;6.30;;;;;;;;;;5094205;28;20100;-75
2021/03/31 11:25:56;;;;;;;15.57;6.95;;;;;;;;;;5094261;28;20028;-75
2021/03/31 11:28:22;;;;;;;14.05;8.30;;;;;;;;;;5093457;28;20409;-74
2021/03/31 11:30:48;;;;;;;13.75;7.40;;;;;;;;;;5085172;28;20114;-75
2021/03/31 11:33:13;;;;;;;17.33;8.00;;;;;;;;;;5082739;28;20017;-75
2021/03/31 11:35:39;;;;;;;18.00;8.23;;;;;;;;;;5083351;28;20058;-74
2021/03/31 11:38:05;;;;;;;11.38;7.43;;;;;;;;;;5084274;28;20028;-74
2021/03/31 11:40:31;;;;;;;15.45;7.70;;;;;;;;;;5082424;28;20034;-74
2021/03/31 11:42:56;;;;;;;8.98;6.07;;;;;;;;;;5085405;28;20504;-74
2021/03/31 11:45:22;;;;;;;9.50;6.15;;;;;;;;;;5089658;28;20036;-77
2021/03/31 11:47:47;;;;;;;14.07;6.95;;;;;;;;;;5084743;28;20036;-76
2021/03/31 11:50:13;;;;;;;17.48;6.95;;;;;;;;;;5073254;28;20025;-75
2021/03/31 11:52:38;;;;;;;12.48;7.15;;;;;;;;;;5073501;28;20399;-74
2021/03/31 11:55:05;;;;;;;11.18;6.75;;;;;;;;;;5073102;28;20106;-74
2021/03/31 11:57:31;;;;;;;15.93;7.47;;;;;;;;;;5071821;28;20044;-74
2021/03/31 11:59:56;;;;;;;12.38;6.50;;;;;;;;;;5073594;28;20033;-74
2021/03/31 12:02:21;;;;;;;10.82;6.75;;;;;;;;;;5073346;28;20072;-75
2021/03/31 12:04:50;;;;;;;9.93;5.88;;;;;;;;;;5072754;28;20036;-75
2021/03/31 12:07:18;;;;;;;14.80;7.50;;;;;;;;;;5073204;28;20078;-74
2021/03/31 12:09:44;;;;;;;14.23;4.90;;;;;;;;;;5075897;28;20156;-76
2021/03/31 12:12:13;;;;;;;7.68;3.95;;;;;;;;;;5065170;28;20132;-76
2021/03/31 12:14:39;;;;;;;9.95;4.50;;;;;;;;;;5081260;28;20035;-75
2021/03/31 12:17:05;;;;;;;7.32;4.80;;;;;;;;;;5083186;28;20024;-76
2021/03/31 12:19:31;;;;;;;6.90;3.95;;;;;;;;;;5083829;28;20111;-75
2021/03/31 12:21:57;;;;;;;9.73;5.90;;;;;;;;;;5082499;28;20529;-75
2021/03/31 12:24:23;;;;;;;9.05;4.30;;;;;;;;;;5081925;28;20061;-75
2021/03/31 12:26:49;;;;;;;7.50;4.40;;;;;;;;;;5081135;28;20032;-76
2021/03/31 12:29:16;;;;;;;6.82;4.32;;;;;;;;;;5082113;28;20066;-75
2021/03/31 12:31:42;;;;;;;11.75;4.63;;;;;;;;;;5081122;28;20032;-76
2021/03/31 12:34:07;;;;;;;6.93;4.90;;;;;;;;;;5081588;28;20043;-75
2021/03/31 12:36:33;;;;;;;11.55;4.55;;;;;;;;;;5083170;28;20044;-76
2021/03/31 12:38:58;;;;;;;10.23;4.03;;;;;;;;;;5080234;28;20039;-75
2021/03/31 12:41:24;;;;;;;8.40;5.13;;;;;;;;;;5083516;28;20509;-76
2021/03/31 12:43:49;;;;;;;11.77;5.10;;;;;;;;;;5079398;28;20028;-75
2021/03/31 12:46:15;;;;;;;10.35;5.28;;;;;;;;;;5068860;28;20124;-76
2021/03/31 12:48:41;;;;;;;10.38;4.50;;;;;;;;;;5093089;28;20048;-76
2021/03/31 12:51:10;;;;;;;5.80;3.85;;;;;;;;;;5093192;28;20032;-76
2021/03/31 12:53:40;;;;;;;7.88;5.38;;;;;;;;;;5093049;28;20036;-76
2021/03/31 12:56:06;;;;;;;9.38;5.07;;;;;;;;;;5093322;28;20457;-76
2021/03/31 12:58:39;;;;;;;11.88;6.78;;;;;;;;;;5093795;28;20038;-77
2021/03/31 13:01:10;;;;;;;13.82;6.68;;;;;;;;;;5092822;28;20047;-76
2021/03/31 13:03:36;;;;;;;16.73;6.45;;;;;;;;;;5092445;28;20119;-76
2021/03/31 13:06:01;;;;;;;14.57;6.05;;;;;;;;;;5092987;28;20460;-76
2021/03/31 13:08:27;;;;;;;17.13;6.28;;;;;;;;;;5091791;28;20048;-77
2021/03/31 13:10:53;;;;;;;12.05;6.80;;;;;;;;;;5093094;28;20082;-77
2021/03/31 13:16:13;;;;;;;17.15;7.72;;;;;;;;;;5064002;28;20483;-77
2021/03/31 13:24:20;;;;;;;13.75;7.47;;;;;;;;;;5072571;28;20036;-77
2021/03/31 13:28:08;;;;;;;12.90;7.03;;;;;;;;;;5073747;28;20036;-77
2021/03/31 13:29:55;;;;;;;11.77;6.25;;;;;;;;;;5071035;28;20048;-78
2021/03/31 13:32:27;;;;;;;11.98;5.05;;;;;;;;;;5075048;28;20036;-78
2021/03/31 13:34:57;;;;;;;8.95;5.13;;;;;;;;;;5074972;28;20044;-77
2021/03/31 13:37:32;;;;;;;10.95;5.80;;;;;;;;;;5075899;28;20037;-76
2021/03/31 13:39:58;;;;;;;6.63;4.93;;;;;;;;;;5074874;28;20046;-78
2021/03/31 13:42:24;;;;;;;8.60;3.75;;;;;;;;;;5075564;28;20032;-77
2021/03/31 13:44:50;;;;;;;5.13;3.38;;;;;;;;;;5101723;28;20450;-76
2021/03/31 13:47:19;;;;;;;5.45;3.60;;;;;;;;;;5116490;28;20034;-76
2021/03/31 13:49:55;;;;;;;8.38;3.78;;;;;;;;;;5116783;28;20023;-77
2021/03/31 13:52:24;;;;;;;7.50;4.53;;;;;;;;;;5115321;28;20035;-77
2021/03/31 13:57:18;;;;;;;11.27;6.10;;;;;;;;;;5115809;28;20107;-77
2021/03/31 13:59:43;;;;;;;12.88;6.70;;;;;;;;;;5116823;28;20427;-78
2021/03/31 14:02:09;;;;;;;11.55;6.18;;;;;;;;;;5116542;28;20038;-77
2021/03/31 14:04:34;;;;;;;8.15;4.75;;;;;;;;;;5116270;28;20039;-77
2021/03/31 14:07:00;;;;;;;7.00;4.45;;;;;;;;;;5114673;28;20027;-77
2021/03/31 14:09:25;;;;;;;10.88;3.78;;;;;;;;;;5116188;28;20401;-77
2021/03/31 14:11:51;;;;;;;6.28;4.38;;;;;;;;;;5116088;28;20043;-77
2021/03/31 14:14:18;;;;;;;7.38;4.05;;;;;;;;;;5109430;28;20032;-77
2021/03/31 14:16:51;;;;;;;9.82;5.70;;;;;;;;;;5095498;28;20484;-77
2021/03/31 14:19:17;;;;;;;7.82;4.68;;;;;;;;;;5094456;28;20036;-77
2021/03/31 14:21:42;;;;;;;14.00;5.68;;;;;;;;;;5094405;28;20043;-77
2021/03/31 14:24:08;;;;;;;7.38;4.18;;;;;;;;;;5094343;28;20040;-77
2021/03/31 14:26:34;;;;;;;9.18;4.00;;;;;;;;;;5095838;28;20036;-77
2021/03/31 14:28:59;;;;;;;13.88;4.78;;;;;;;;;;5095555;28;20048;-77
2021/03/31 14:31:24;;;;;;;10.98;5.07;;;;;;;;;;5096202;28;20119;-77
2021/03/31 14:33:50;;;;;;;11.32;5.43;;;;;;;;;;5094022;28;20128;-77
2021/03/31 14:36:15;;;;;;;8.13;5.18;;;;;;;;;;5094290;28;20036;-77
2021/03/31 14:38:41;;;;;;;8.60;4.10;;;;;;;;;;5095684;28;20131;-77
2021/03/31 14:41:06;;;;;;;18.33;5.43;;;;;;;;;;5095811;28;20040;-77
2021/03/31 14:43:32;;;;;;;8.07;4.60;;;;;;;;;;5095193;28;20035;-78
2021/03/31 14:45:58;;;;;;;6.80;4.18;;;;;;;;;;5095049;28;20370;-77
2021/03/31 14:48:24;;;;;;;11.05;5.18;;;;;;;;;;5095804;28;20049;-77
2021/03/31 14:50:49;;;;;;;10.18;5.50;;;;;;;;;;5095979;28;20431;-77
2021/03/31 14:56:40;;;;;;;11.68;6.15;;;;;;;;;;5094142;28;20123;-77
2021/03/31 15:01:32;;;;;;;14.45;5.78;;;;;;;;;;5094730;28;20046;-78
2021/03/31 15:03:58;;;;;;;10.18;5.25;;;;;;;;;;5093654;28;20486;-76
2021/03/31 15:06:23;;;;;;;14.27;6.30;;;;;;;;;;5094889;28;20024;-76
2021/03/31 15:08:48;;;;;;;12.10;5.57;;;;;;;;;;5095552;28;20047;-76
2021/03/31 15:11:14;;;;;;;11.52;5.38;;;;;;;;;;5081791;28;20104;-76
2021/03/31 15:13:39;;;;;;;10.43;5.22;;;;;;;;;;5082420;28;20033;-77
2021/03/31 15:16:05;;;;;;;12.38;5.88;;;;;;;;;;5082522;28;20032;-76